createdAt,value
2019-02-21T00:04:15.209Z,15.83
2019-02-21T00:09:20.182Z,21.90
2019-02-21T00:14:24.854Z,18.83
2019-02-21T00:19:30.061Z,22.43
2019-02-21T00:24:36.580Z,20.20
2019-02-21T00:29:41.804Z,18.95
2019-02-21T00:34:46.805Z,20.68
2019-02-21T00:39:54.849Z,22.43
2019-02-21T00:44:59.568Z,21.87
2019-02-21T00:50:04.042Z,25.33
2019-02-21T00:55:08.850Z,19.37
2019-02-21T01:00:14.341Z,18.63
2019-02-21T01:05:20.248Z,22.63
2019-02-21T01:10:24.607Z,27.23
2019-02-21T01:15:29.290Z,20.20
2019-02-21T01:20:34.351Z,21.90
2019-02-21T01:25:42.045Z,19.40
2019-02-21T01:30:56.410Z,22.70
2019-02-21T01:35:53.205Z,24.07
2019-02-21T01:40:58.505Z,19.83
2019-02-21T01:46:04.435Z,24.03
2019-02-21T01:51:08.983Z,18.53
2019-02-21T01:56:15.264Z,17.63
2019-02-21T02:01:19.990Z,16.32
2019-02-21T02:06:24.838Z,18.27
2019-02-21T02:11:29.330Z,20.80
2019-02-21T02:16:34.949Z,22.80
2019-02-21T02:21:40.004Z,23.77
2019-02-21T02:26:44.491Z,19.60
2019-02-21T02:31:49.846Z,27.80
2019-02-21T02:36:55.249Z,26.97
2019-02-21T02:42:00.034Z,24.27
2019-02-21T02:47:05.189Z,22.70
2019-02-21T02:52:09.979Z,25.00
2019-02-21T02:57:14.892Z,23.77
2019-02-21T03:02:20.375Z,24.13
2019-02-21T03:07:24.811Z,25.87
2019-02-21T03:12:29.555Z,26.87
2019-02-21T03:17:34.318Z,22.90
2019-02-21T03:22:38.858Z,22.53
2019-02-21T03:27:43.604Z,22.60
2019-02-21T03:32:48.479Z,17.83
2019-02-21T03:37:53.446Z,25.65
2019-02-21T03:42:58.254Z,22.73
2019-02-21T03:48:02.962Z,26.20
2019-02-21T03:53:07.667Z,21.15
2019-02-21T03:58:12.516Z,24.23
2019-02-21T04:03:17.547Z,20.37
2019-02-21T04:08:22.518Z,22.33
2019-02-21T04:13:27.500Z,24.47
2019-02-21T04:18:32.748Z,23.43
2019-02-21T04:23:38.174Z,22.10
2019-02-21T04:28:45.705Z,25.07
2019-02-21T04:33:49.724Z,23.40
2019-02-21T04:38:54.127Z,25.60
2019-02-21T04:43:58.930Z,28.03
2019-02-21T04:49:05.705Z,24.57
2019-02-21T04:54:10.343Z,24.33
2019-02-21T04:59:14.865Z,24.83
2019-02-21T05:04:19.354Z,24.37
2019-02-21T05:09:27.009Z,21.83
2019-02-21T05:14:32.554Z,23.17
2019-02-21T05:19:38.078Z,27.77
2019-02-21T05:24:43.038Z,23.80
2019-02-21T05:29:48.720Z,25.45
2019-02-21T05:35:15.477Z,23.50
2019-02-21T05:40:42.368Z,25.37
2019-02-21T05:45:58.525Z,22.87
2019-02-21T05:51:16.053Z,25.90
2019-02-21T05:56:36.141Z,20.57
2019-02-21T06:02:06.329Z,25.30
2019-02-21T06:07:22.479Z,24.93
2019-02-21T06:12:46.554Z,21.93
2019-02-21T06:18:05.503Z,25.80
2019-02-21T06:23:49.195Z,25.70
2019-02-21T06:29:16.232Z,23.33
2019-02-21T06:34:21.584Z,22.77
2019-02-21T06:39:29.275Z,23.23
2019-02-21T06:44:37.815Z,27.53
2019-02-21T06:49:43.945Z,25.60
2019-02-21T06:54:49.254Z,33.60
2019-02-21T06:59:54.561Z,36.83
2019-02-21T07:04:59.266Z,35.73
2019-02-21T07:10:03.592Z,24.07
2019-02-21T07:15:09.438Z,19.50
2019-02-21T07:20:14.018Z,18.47
2019-02-21T07:25:41.541Z,20.23
2019-02-21T07:30:46.614Z,19.93
2019-02-21T07:35:53.712Z,21.27
2019-02-21T07:40:58.115Z,23.00
2019-02-21T07:46:02.667Z,27.03
2019-02-21T07:51:07.413Z,22.17
2019-02-21T07:56:11.889Z,21.73
2019-02-21T08:01:17.435Z,23.90
2019-02-21T08:06:22.143Z,21.87
2019-02-21T08:11:27.331Z,19.23
2019-02-21T08:16:31.808Z,16.07
2019-02-21T08:21:36.536Z,18.50
2019-02-21T08:26:42.192Z,17.07
2019-02-21T08:31:46.956Z,15.27
2019-02-21T08:36:51.827Z,17.13
2019-02-21T08:41:56.452Z,16.60
2019-02-21T08:47:01.939Z,14.90
2019-02-21T08:52:06.781Z,15.20
2019-02-21T08:57:11.428Z,15.90
2019-02-21T09:02:16.224Z,12.93
2019-02-21T09:07:20.638Z,15.97
2019-02-21T09:12:25.884Z,17.70
2019-02-21T09:17:33.048Z,17.30
2019-02-21T09:22:37.810Z,23.20
2019-02-21T09:27:46.254Z,21.48
2019-02-21T09:32:52.113Z,15.35
2019-02-21T09:37:56.876Z,15.72
2019-02-21T09:43:01.876Z,17.30
2019-02-21T09:48:11.936Z,14.20
2019-02-21T09:53:15.855Z,24.25
2019-02-21T09:58:20.331Z,16.25
2019-02-21T10:03:24.989Z,15.88
2019-02-21T10:08:30.741Z,13.80
2019-02-21T10:13:35.067Z,13.10
2019-02-21T10:18:41.221Z,16.43
2019-02-21T10:23:45.642Z,19.30
2019-02-21T10:28:50.294Z,19.50
2019-02-21T10:33:54.981Z,23.03
2019-02-21T10:39:00.611Z,19.70
2019-02-21T10:44:05.527Z,15.87
2019-02-21T10:49:10.202Z,27.10
2019-02-21T10:54:15.743Z,17.47
2019-02-21T10:59:20.707Z,16.40
2019-02-21T11:04:26.089Z,21.57
2019-02-21T11:09:30.444Z,16.63
2019-02-21T11:14:34.864Z,23.80
2019-02-21T11:19:39.483Z,14.20
2019-02-21T11:24:44.527Z,16.53
2019-02-21T11:29:49.001Z,11.13
2019-02-21T11:34:53.382Z,13.83
2019-02-21T11:39:57.807Z,15.03
2019-02-21T11:45:02.930Z,13.87
2019-02-21T11:50:08.298Z,13.97
2019-02-21T11:55:16.019Z,15.93
2019-02-21T12:00:22.790Z,17.48
2019-02-21T12:05:31.497Z,10.63
2019-02-21T12:10:33.352Z,14.53
2019-02-21T12:15:38.013Z,18.27
2019-02-21T12:20:43.355Z,16.97
2019-02-21T12:25:48.071Z,12.00
2019-02-21T12:30:52.496Z,10.80
2019-02-21T12:35:59.510Z,12.33
2019-02-21T12:41:04.434Z,11.53
2019-02-21T12:46:08.943Z,16.03
2019-02-21T12:51:14.469Z,11.77
2019-02-21T12:56:19.784Z,15.63
2019-02-21T13:01:25.308Z,12.43
2019-02-21T13:06:29.705Z,15.48
2019-02-21T13:11:35.586Z,16.55
2019-02-21T13:16:40.846Z,11.80
2019-02-21T13:21:45.199Z,11.57
2019-02-21T13:26:50.337Z,9.88
2019-02-21T13:31:55.085Z,12.37
2019-02-21T13:37:01.294Z,10.57
2019-02-21T13:42:05.728Z,13.10
2019-02-21T13:47:10.119Z,9.87
2019-02-21T13:52:15.499Z,10.30
2019-02-21T13:57:20.359Z,8.87
2019-02-21T14:02:25.529Z,6.63
2019-02-21T14:07:30.631Z,15.00
2019-02-21T14:12:35.144Z,10.97
2019-02-21T14:17:39.813Z,8.03
2019-02-21T14:22:45.790Z,13.33
2019-02-21T14:27:52.033Z,7.47
2019-02-21T14:32:57.388Z,7.23
2019-02-21T14:38:02.301Z,15.33
2019-02-21T14:43:07.485Z,8.10
2019-02-21T14:48:12.349Z,8.27
2019-02-21T14:53:17.233Z,11.23
2019-02-21T14:58:22.526Z,16.23
2019-02-21T15:03:27.053Z,11.10
2019-02-21T15:08:31.536Z,5.53
2019-02-21T15:13:35.987Z,10.77
2019-02-21T15:18:40.849Z,6.87
2019-02-21T15:23:46.589Z,7.63
2019-02-21T15:28:51.329Z,3.60
2019-02-21T15:33:56.319Z,7.60
2019-02-21T15:39:00.728Z,9.37
2019-02-21T15:44:05.604Z,7.90
2019-02-21T15:49:10.109Z,6.97
2019-02-21T15:54:14.535Z,19.73
2019-02-21T15:59:19.050Z,15.50
2019-02-21T16:04:23.985Z,28.23
2019-02-21T16:09:28.741Z,19.82
2019-02-21T16:14:33.497Z,24.30
2019-02-21T16:19:38.288Z,23.37
2019-02-21T16:24:43.731Z,27.77
2019-02-21T16:29:48.746Z,25.53
2019-02-21T16:34:53.530Z,21.40
2019-02-21T16:40:00.818Z,20.07
2019-02-21T16:45:07.214Z,27.22
2019-02-21T16:50:12.991Z,19.40
2019-02-21T16:55:20.999Z,25.77
2019-02-21T17:00:25.770Z,23.63
2019-02-21T17:05:30.673Z,28.17
2019-02-21T17:10:35.074Z,21.37
2019-02-21T17:15:39.476Z,24.80
2019-02-21T17:20:44.023Z,22.03
2019-02-21T17:25:48.641Z,28.53
2019-02-21T17:30:53.762Z,24.67
2019-02-21T17:36:01.648Z,25.70
2019-02-21T17:41:06.417Z,30.40
2019-02-21T17:46:10.955Z,25.13
2019-02-21T17:51:15.865Z,24.53
2019-02-21T17:56:20.713Z,25.13
2019-02-21T18:01:27.754Z,24.10
2019-02-21T18:06:33.548Z,31.07
2019-02-21T18:11:39.255Z,22.73
2019-02-21T18:16:45.069Z,28.57
2019-02-21T18:21:53.866Z,29.07
2019-02-21T18:27:03.393Z,23.20
2019-02-21T18:32:09.314Z,25.33
2019-02-21T18:37:16.302Z,11.17
2019-02-21T18:42:21.063Z,13.70
2019-02-21T18:47:28.120Z,10.63
2019-02-21T18:52:33.407Z,11.53
2019-02-21T18:57:38.450Z,14.83
2019-02-21T19:02:43.036Z,11.27
2019-02-21T19:08:00.406Z,11.90
2019-02-21T19:12:57.009Z,13.53
2019-02-21T19:18:01.507Z,14.03
2019-02-21T19:23:06.751Z,12.23
2019-02-21T19:28:12.280Z,11.83
2019-02-21T19:33:17.388Z,13.53
2019-02-21T19:38:23.055Z,12.93
2019-02-21T19:43:31.798Z,13.83
2019-02-21T19:48:37.042Z,16.00
2019-02-21T19:53:41.728Z,16.10
2019-02-21T19:58:47.966Z,16.70
2019-02-21T20:03:53.800Z,11.37
2019-02-21T20:08:59.995Z,11.57
2019-02-21T20:14:05.141Z,12.53
2019-02-21T20:19:10.157Z,14.33
2019-02-21T20:24:15.301Z,14.03
2019-02-21T20:29:20.541Z,13.80
2019-02-21T20:34:25.511Z,16.33
2019-02-21T20:39:30.229Z,16.50
2019-02-21T20:44:36.338Z,15.72
2019-02-21T20:49:41.080Z,16.73
2019-02-21T20:54:46.382Z,19.03
2019-02-21T20:59:51.761Z,14.57
2019-02-21T21:04:57.713Z,12.03
2019-02-21T21:10:02.953Z,12.13
2019-02-21T21:15:09.562Z,12.73
2019-02-21T21:20:16.975Z,18.57
2019-02-21T21:25:21.077Z,9.63
2019-02-21T21:30:27.861Z,15.40
2019-02-21T21:35:33.009Z,12.60
2019-02-21T21:40:38.205Z,11.07
2019-02-21T21:45:42.604Z,16.53
2019-02-21T21:50:47.711Z,18.87
2019-02-21T21:55:52.255Z,16.00
2019-02-21T22:00:58.977Z,15.60
2019-02-21T22:06:03.883Z,13.78
2019-02-21T22:11:08.650Z,12.97
2019-02-21T22:16:13.404Z,19.20
2019-02-21T22:21:18.127Z,14.87
2019-02-21T22:26:23.252Z,13.87
2019-02-21T22:31:27.861Z,20.55
2019-02-21T22:36:32.735Z,11.83
2019-02-21T22:41:40.419Z,15.57
2019-02-21T22:46:45.270Z,19.57
2019-02-21T22:51:53.188Z,10.97
2019-02-21T22:56:59.717Z,17.30
2019-02-21T23:02:04.651Z,15.20
2019-02-21T23:07:54.510Z,14.17
2019-02-21T23:12:59.086Z,12.50
2019-02-21T23:18:04.188Z,14.83
2019-02-21T23:23:11.627Z,15.83
2019-02-21T23:28:16.057Z,21.37
2019-02-21T23:33:21.214Z,20.80
2019-02-21T23:38:26.493Z,18.20
2019-02-21T23:43:31.296Z,19.13
2019-02-21T23:48:35.729Z,19.93
2019-02-21T23:53:41.505Z,16.97
2019-02-21T23:58:46.158Z,16.37
